Terminal Aerodrome Forecast
Issued by NWS

Home | Current Version | Previous Version | Text Only | Print | Product List | Glossary On
Versions: 1 2 3 4 5 6 7 8 9 10 11 12 13 14 15
015
FTUS44 KLIX 242344
TAFMSY
TAF
KMSY 242344Z 2500/2524 26004KT P6SM VCSH BKN025 BKN200
      TEMPO 2500/2502 VRB15KT 3SM -TSRA BKN025CB
     FM250200 10002KT P6SM SCT025 BKN200
     FM250900 00000KT P6SM VCSH SCT025 BKN250
     FM251500 10010KT P6SM VCTS SCT035CB BKN050
      TEMPO 2517/2521 VRB15G25KT 1SM TSRA BR BKN030CB=

USA.gov is the U.S. government's official web portal to all federal, state and local government web resources and services.